createdAt,value
2023-08-14T00:00:00.000Z,7
2023-08-14T00:15:00.000Z,6.64
2023-08-14T00:30:00.000Z,6.75
2023-08-14T00:45:00.000Z,6.13
2023-08-14T01:00:00.000Z,3.15
2023-08-14T01:15:00.000Z,3.29
2023-08-14T01:30:00.000Z,3.61
2023-08-14T01:45:00.000Z,4.08
2023-08-14T02:00:00.000Z,3.71
2023-08-14T02:15:00.000Z,3.76
2023-08-14T02:30:00.000Z,4.65
2023-08-14T02:45:00.000Z,3.93
2023-08-14T03:00:00.000Z,3.61
2023-08-14T03:15:00.000Z,4.76
2023-08-14T03:30:00.000Z,4.59
2023-08-14T03:45:00.000Z,4.96
2023-08-14T04:00:00.000Z,5.12
2023-08-14T04:15:00.000Z,4.53
2023-08-14T04:30:00.000Z,4.42
2023-08-14T04:45:00.000Z,4.69
2023-08-14T05:00:00.000Z,3.55
2023-08-14T05:15:00.000Z,3.27
2023-08-14T05:30:00.000Z,3.35
2023-08-14T05:45:00.000Z,3.22
2023-08-14T06:00:00.000Z,3.07
2023-08-14T06:15:00.000Z,3.14
2023-08-14T06:30:00.000Z,3.01
2023-08-14T06:45:00.000Z,3.06
2023-08-14T07:00:00.000Z,3.78
2023-08-14T07:15:00.000Z,3.94
2023-08-14T07:30:00.000Z,4.55
2023-08-14T07:45:00.000Z,4.59
2023-08-14T08:00:00.000Z,3.81
2023-08-14T08:15:00.000Z,4.21
2023-08-14T08:30:00.000Z,4.13
2023-08-14T08:45:00.000Z,3.36
2023-08-14T09:00:00.000Z,3.58
2023-08-14T09:15:00.000Z,3.74
2023-08-14T09:30:00.000Z,4.15
2023-08-14T09:45:00.000Z,4.07
2023-08-14T10:00:00.000Z,4.12
2023-08-14T10:15:00.000Z,4.89
2023-08-14T10:30:00.000Z,4.81
2023-08-14T10:45:00.000Z,5.2
2023-08-14T11:00:00.000Z,5.13
2023-08-14T11:15:00.000Z,4.95
2023-08-14T11:30:00.000Z,5.15
2023-08-14T11:45:00.000Z,5.22
2023-08-14T12:00:00.000Z,5.14
2023-08-14T12:15:00.000Z,5.46
2023-08-14T12:30:00.000Z,5.31
2023-08-14T12:45:00.000Z,5.39
2023-08-14T13:00:00.000Z,5.16
2023-08-14T13:15:00.000Z,5.21
2023-08-14T13:30:00.000Z,4.66
2023-08-14T13:45:00.000Z,3.91
2023-08-14T14:00:00.000Z,4.22
2023-08-14T14:15:00.000Z,5.11
2023-08-14T14:30:00.000Z,5.27
2023-08-14T14:45:00.000Z,5.21
2023-08-14T15:00:00.000Z,5.39
2023-08-14T15:15:00.000Z,5.27
2023-08-14T15:30:00.000Z,5.53
2023-08-14T15:45:00.000Z,5.26
2023-08-14T16:00:00.000Z,5.66
2023-08-14T16:15:00.000Z,5.54
2023-08-14T16:30:00.000Z,5.29
2023-08-14T16:45:00.000Z,6.4
2023-08-14T17:00:00.000Z,6.79
2023-08-14T17:15:00.000Z,6.95
2023-08-14T17:30:00.000Z,7.51
2023-08-14T17:45:00.000Z,7.41
2023-08-14T18:00:00.000Z,9.41
2023-08-14T18:15:00.000Z,8.13
2023-08-14T18:30:00.000Z,14.09
2023-08-14T18:45:00.000Z,9.32
2023-08-14T19:00:00.000Z,11.02
2023-08-14T19:15:00.000Z,11.84
2023-08-14T19:30:00.000Z,9.86
2023-08-14T19:45:00.000Z,9.93
2023-08-14T20:00:00.000Z,10.26
2023-08-14T20:15:00.000Z,9.91
2023-08-14T20:30:00.000Z,9.54
2023-08-14T20:45:00.000Z,9.61
2023-08-14T21:00:00.000Z,9.92
2023-08-14T21:15:00.000Z,9.92
2023-08-14T21:30:00.000Z,10.33
2023-08-14T21:45:00.000Z,10.14
2023-08-14T22:00:00.000Z,9.73
2023-08-14T22:15:00.000Z,9.25
2023-08-14T22:30:00.000Z,9.56
2023-08-14T22:45:00.000Z,9.72
2023-08-14T23:00:00.000Z,9.61
2023-08-14T23:15:00.000Z,8.64
2023-08-14T23:30:00.000Z,7.99
2023-08-14T23:45:00.000Z,7.67
